Impacts METAR Board
IDs:

KBWI - Baltimore-Washington, MD, US

Updated at: 1300 UTC 24 Aug 2019
Potential Impact None Slight Moderate High
Time 24/01Z 24/02Z 24/03Z 24/04Z 24/05Z 24/06Z 24/07Z 24/08Z 24/09Z 24/10Z 24/11Z 24/12Z 24/13Z
Temp67 68 66 64 65 66 65 64 64 63 63 66 68
Dewpt64 64 63 62 62 60 58 57 56 55 55 55 55
Altim30.05 30.08 30.07 30.09 30.09 30.08 30.09 30.10 30.12 30.13 30.15 30.18 30.18
VIS10 10 10 10 10 10 10 10 10 10 10 10 10
CIG60 65 80 180 250 -- -- -- -- -- -- -- --
CoverOVCBKNBKNBKNBKNSCTSCTFEWFEWFEWFEWFEWFEW
FltCatVFRVFRVFRVFRVFRVFRVFRVFRVFRVFRVFRVFRVFR
WX--------------------------
WDir260031028032034036036010360350020
WSpd3 0 4 4 5 5 4 4 5 5 4 4 10
WGst-- -- -- -- -- -- -- -- -- -- -- -- 20
Raw hourly METARs
KBWI 240054Z 26003KT 10SM OVC060 19/18 A3005 RMK AO2 SLP174 T01940178
KBWI 240154Z 00000KT 10SM BKN065 BKN080 20/18 A3008 RMK AO2 SLP183 T02000178
KBWI 240254Z 31004KT 10SM FEW065 BKN080 BKN240 19/17 A3007 RMK AO2 SLP182 T01890172 50012
KBWI 240354Z 28004KT 10SM FEW080 BKN180 18/17 A3009 RMK AO2 SLP190 T01780167
KBWI 240454Z 32005KT 10SM SCT180 BKN250 18/17 A3009 RMK AO2 SLP189 T01830167 402330178
KBWI 240554Z 34005KT 10SM SCT180 SCT250 19/16 A3008 RMK AO2 SLP186 T01890156 10200 20178 50004
KBWI 240654Z 36004KT 10SM FEW180 SCT250 18/14 A3009 RMK AO2 SLP188 T01830144
KBWI 240754Z 36004KT 10SM FEW180 FEW250 18/14 A3010 RMK AO2 SLP193 T01780139
KBWI 240854Z 01005KT 10SM FEW180 FEW250 18/13 A3012 RMK AO2 SLP197 T01780133 53011
KBWI 240954Z 36005KT 10SM FEW180 FEW250 17/13 A3013 RMK AO2 SLP202 T01720128
KBWI 241054Z 35004KT 10SM FEW080 FEW180 FEW250 17/13 A3015 RMK AO2 SLP208 T01720128
KBWI 241154Z VRB04KT 10SM FEW080 FEW180 19/13 A3018 RMK AO2 SLP218 70007 T01890128 10189 20167 53020
KBWI 241254Z 02010G20KT 10SM FEW080 FEW180 20/13 A3018 RMK AO2 SLP219 T02000128



Page loaded:  13:12 UTC  |   06:12 AM Pacific  |   07:12 AM Mountain  |   08:12 AM Central  |   09:12 AM Eastern

 

ADVISORIES

FORECASTS

FORECASTS

OBSERVATIONS

USER TOOLS

ABOUT US